Messwerte Iwojima

Temperatur

Temperatur
°C
1623571200 17.00 17.00 28
1623574800 18.00 18.00 27
1623578400 19.00 19.00
1623582000 20.00 20.00
1623585600 21.00 21.00 26
1623589200 22.00 22.00
1623592800 23.00 23.00
1623596400 0.00 0.00 26
1623600000 1.00 1.00
1623603600 2.00 2.00
1623607200 3.00 3.00 26
1623610800 4.00 4.00
1623614400 5.00 5.00 25
1623618000 6.00 6.00 25
1623621600 7.00 7.00
1623625200 8.00 8.00 25
1623628800 9.00 9.00 26
1623632400 10.00 10.00 27
1623636000 11.00 11.00 28
1623639600 12.00 12.00 28
1623643200 13.00 13.00 29
1623646800 14.00 14.00 29
1623650400 15.00 15.00 29
1623654000 16.00 16.00 28

Aktuellste Messwerte

Wettercharakter
Wetter: wechselnd bewölkt
Temperatur
28 °C
Feuchtigkeit
80 %
Wind
20 km/hWindrichtung: West
Luftdruck
1005 hPa
Messzeit: 14. Juni 2021, 16.00Datenquelle: METAR

Wind

Windrichtung Böen Mittelwind
° km/h km/h
1623571200 17.00 16.00 - 17.00 160° 15
1623574800 18.00 17.00 - 18.00 140° 10
1623578400 19.00 18.00 - 19.00
1623582000 20.00 19.00 - 20.00
1623585600 21.00 20.00 - 21.00 160° 15
1623589200 22.00 21.00 - 22.00
1623592800 23.00 22.00 - 23.00
1623596400 0.00 23.00 - 0.00 160° 20
1623600000 1.00 0.00 - 1.00
1623603600 2.00 1.00 - 2.00
1623607200 3.00 2.00 - 3.00 170° 15
1623610800 4.00 3.00 - 4.00
1623614400 5.00 4.00 - 5.00 200° 15
1623618000 6.00 5.00 - 6.00 200° 20
1623621600 7.00 6.00 - 7.00
1623625200 8.00 7.00 - 8.00 210° 20
1623628800 9.00 8.00 - 9.00 250° 20
1623632400 10.00 9.00 - 10.00 260° 20
1623636000 11.00 10.00 - 11.00 280° 20
1623639600 12.00 11.00 - 12.00 280° 20
1623643200 13.00 12.00 - 13.00 270° 20
1623646800 14.00 13.00 - 14.00 260° 20
1623650400 15.00 14.00 - 15.00 260° 20
1623654000 16.00 15.00 - 16.00 250° 20

Ihre Wetterstation

Fehlt Ihre Wetterstation auf unserem Portal?

Schreiben Sie an network@meteonews.ch